createdAt,value
2022-10-20T00:00:29.302Z,3.25
2022-10-20T00:03:17.979Z,3.22
2022-10-20T00:05:48.608Z,3.14
2022-10-20T00:08:17.890Z,3.05
2022-10-20T00:13:22.739Z,2.98
2022-10-20T00:15:55.999Z,2.98
2022-10-20T00:18:25.158Z,2.96
2022-10-20T00:20:56.110Z,2.94
2022-10-20T00:23:24.675Z,2.91
2022-10-20T00:26:06.487Z,2.96
2022-10-20T00:28:36.527Z,3.00
2022-10-20T00:31:07.392Z,3.01
2022-10-20T00:33:37.776Z,3.04
2022-10-20T00:36:08.371Z,3.05
2022-10-20T00:38:40.188Z,3.05
2022-10-20T00:41:09.462Z,3.06
2022-10-20T00:43:58.035Z,3.08
2022-10-20T00:46:41.974Z,3.08
2022-10-20T00:49:18.447Z,3.05
2022-10-20T00:51:48.776Z,3.06
2022-10-20T00:54:20.990Z,3.04
2022-10-20T00:57:15.022Z,3.00
2022-10-20T00:59:45.340Z,2.95
2022-10-20T01:02:16.730Z,2.90
2022-10-20T01:04:46.908Z,2.84
2022-10-20T01:07:15.666Z,2.74
2022-10-20T01:09:44.401Z,2.64
2022-10-20T01:12:28.233Z,2.59
2022-10-20T01:15:04.994Z,2.61
2022-10-20T01:17:40.540Z,2.68
2022-10-20T01:20:24.787Z,2.74
2022-10-20T01:23:25.802Z,2.79
2022-10-20T01:25:56.584Z,2.83
2022-10-20T01:28:45.771Z,2.88
2022-10-20T01:31:19.101Z,2.97
2022-10-20T01:33:57.423Z,3.00
2022-10-20T01:36:38.586Z,2.97
2022-10-20T01:39:07.213Z,2.93
2022-10-20T01:41:44.250Z,2.82
2022-10-20T01:44:15.233Z,2.69
2022-10-20T01:46:45.181Z,2.59
2022-10-20T01:49:15.106Z,2.48
2022-10-20T01:51:45.749Z,2.41
2022-10-20T01:54:24.767Z,2.41
2022-10-20T01:57:05.836Z,2.47
2022-10-20T01:59:40.196Z,2.53
2022-10-20T02:02:09.214Z,2.57
2022-10-20T02:04:55.761Z,2.65
2022-10-20T02:07:27.753Z,2.74
2022-10-20T02:10:01.046Z,2.82
2022-10-20T02:12:35.087Z,2.90
2022-10-20T02:15:06.118Z,3.00
2022-10-20T02:17:36.315Z,3.09
2022-10-20T02:20:07.725Z,3.16
2022-10-20T02:22:40.496Z,3.21
2022-10-20T02:25:12.882Z,3.26
2022-10-20T02:27:44.700Z,3.28
2022-10-20T02:30:17.393Z,3.26
2022-10-20T02:32:52.970Z,3.24
2022-10-20T02:35:23.703Z,3.16
2022-10-20T02:37:52.493Z,3.08
2022-10-20T02:40:22.693Z,3.03
2022-10-20T02:42:51.486Z,3.00
2022-10-20T02:45:22.922Z,3.00
2022-10-20T02:47:51.545Z,3.00
2022-10-20T02:50:20.138Z,3.02
2022-10-20T02:52:50.838Z,3.03
2022-10-20T02:55:20.418Z,3.02
2022-10-20T02:57:50.037Z,2.93
2022-10-20T03:00:21.363Z,2.84
2022-10-20T03:02:50.130Z,2.73
2022-10-20T03:05:21.629Z,2.59
2022-10-20T03:07:51.245Z,2.48
2022-10-20T03:10:20.608Z,2.39
2022-10-20T03:12:50.988Z,2.30
2022-10-20T03:15:21.779Z,2.16
2022-10-20T03:17:51.119Z,2.10
2022-10-20T03:20:20.948Z,1.99
2022-10-20T03:22:49.586Z,1.90
2022-10-20T03:25:18.039Z,1.87
2022-10-20T03:27:47.505Z,1.83
2022-10-20T03:30:16.131Z,1.78
2022-10-20T03:32:44.768Z,1.79
2022-10-20T03:35:13.545Z,1.79
2022-10-20T03:37:42.235Z,1.80
2022-10-20T03:40:11.287Z,1.85
2022-10-20T03:42:39.771Z,1.86
2022-10-20T03:45:08.430Z,1.84
2022-10-20T03:47:37.065Z,1.75
2022-10-20T03:50:06.508Z,1.73
2022-10-20T03:52:35.704Z,1.72
2022-10-20T03:55:05.885Z,1.71
2022-10-20T03:57:34.858Z,1.71
2022-10-20T04:00:05.175Z,1.69
2022-10-20T04:02:42.129Z,1.70
2022-10-20T04:05:18.388Z,1.71
2022-10-20T04:07:53.189Z,1.73
2022-10-20T04:10:22.064Z,1.77
2022-10-20T04:12:50.867Z,1.81
2022-10-20T04:15:19.485Z,1.85
2022-10-20T04:17:48.005Z,1.86
2022-10-20T04:20:16.736Z,1.85
2022-10-20T04:22:47.633Z,1.83
2022-10-20T04:25:19.579Z,1.79
2022-10-20T04:27:48.216Z,1.75
2022-10-20T04:30:17.512Z,1.70
2022-10-20T04:32:51.755Z,1.65
2022-10-20T04:35:20.605Z,1.60
2022-10-20T04:37:49.588Z,1.57
2022-10-20T04:40:19.118Z,1.57
2022-10-20T04:42:47.939Z,1.57
2022-10-20T04:45:16.776Z,1.54
2022-10-20T04:47:48.676Z,1.52
2022-10-20T04:50:17.305Z,1.55
2022-10-20T04:53:00.798Z,1.59
2022-10-20T04:55:33.134Z,1.54
2022-10-20T04:58:02.072Z,1.49
2022-10-20T05:00:30.830Z,1.37
2022-10-20T05:02:59.414Z,1.30
2022-10-20T05:05:31.618Z,1.28
2022-10-20T05:08:00.227Z,1.25
2022-10-20T05:10:35.885Z,1.21
2022-10-20T05:13:07.757Z,1.18
2022-10-20T05:15:40.515Z,1.17
2022-10-20T05:18:14.957Z,1.19
2022-10-20T05:21:07.799Z,1.22
2022-10-20T05:23:44.128Z,1.28
2022-10-20T05:26:18.340Z,1.34
2022-10-20T05:28:52.693Z,1.41
2022-10-20T05:31:27.195Z,1.46
2022-10-20T05:34:04.491Z,1.41
2022-10-20T05:36:38.832Z,1.38
2022-10-20T05:39:14.182Z,1.34
2022-10-20T05:41:48.737Z,1.35
2022-10-20T05:44:29.599Z,1.36
2022-10-20T05:47:03.401Z,1.37
2022-10-20T05:49:43.941Z,1.38
2022-10-20T05:52:18.875Z,1.38
2022-10-20T05:54:56.563Z,1.38
2022-10-20T05:57:31.914Z,1.41
2022-10-20T06:00:06.053Z,1.45
2022-10-20T06:02:47.050Z,1.50
2022-10-20T06:05:21.851Z,1.88
2022-10-20T06:07:55.725Z,2.65
2022-10-20T06:10:31.422Z,3.60
2022-10-20T06:13:06.917Z,4.18
2022-10-20T06:15:46.479Z,5.38
2022-10-20T06:18:19.984Z,6.98
2022-10-20T06:20:59.253Z,7.84
2022-10-20T06:23:33.933Z,8.36
2022-10-20T06:26:07.753Z,8.59
2022-10-20T06:28:38.324Z,10.28
2022-10-20T06:31:27.034Z,11.91
2022-10-20T06:33:57.941Z,13.56
2022-10-20T06:36:28.382Z,14.68
2022-10-20T06:38:59.117Z,15.79
2022-10-20T06:41:29.752Z,16.87
2022-10-20T06:44:02.179Z,17.93
2022-10-20T06:46:35.142Z,19.01
2022-10-20T06:49:05.726Z,19.86
2022-10-20T06:51:36.161Z,20.41
2022-10-20T06:54:07.002Z,19.56
2022-10-20T06:57:04.571Z,18.71
2022-10-20T06:59:33.637Z,18.47
2022-10-20T07:02:03.590Z,17.67
2022-10-20T07:04:36.509Z,15.85
2022-10-20T07:07:05.542Z,14.38
2022-10-20T07:09:41.587Z,13.38
2022-10-20T07:12:11.191Z,12.59
2022-10-20T07:14:40.065Z,11.76
2022-10-20T07:17:13.624Z,11.13
2022-10-20T07:19:53.611Z,10.59
2022-10-20T07:22:28.471Z,10.09
2022-10-20T07:28:25.315Z,9.20
2022-10-20T07:37:46.222Z,8.55
2022-10-20T07:46:46.596Z,8.32
2022-10-20T07:49:45.914Z,8.31
2022-10-20T07:52:16.879Z,8.18
2022-10-20T07:54:45.953Z,8.10
2022-10-20T07:57:40.949Z,7.99
2022-10-20T08:00:11.195Z,7.92
2022-10-20T08:02:47.437Z,7.94
2022-10-20T08:05:34.964Z,8.01
2022-10-20T08:08:20.847Z,8.09
2022-10-20T10:19:52.476Z,26.34
2022-10-20T10:22:27.737Z,26.24
2022-10-20T10:28:29.573Z,26.96
2022-10-20T10:31:11.158Z,27.67
2022-10-20T10:33:41.598Z,28.52
2022-10-20T10:36:26.213Z,28.89
2022-10-20T10:38:57.581Z,29.05
2022-10-20T10:41:44.772Z,29.28
2022-10-20T10:44:29.813Z,29.65
2022-10-20T10:47:14.197Z,29.75
2022-10-20T10:49:53.293Z,27.52
2022-10-20T10:52:28.571Z,25.42
2022-10-20T10:55:04.594Z,23.67
2022-10-20T11:37:47.607Z,27.39
2022-10-20T11:56:31.678Z,26.74
2022-10-20T12:02:52.146Z,25.92
2022-10-20T12:05:29.601Z,25.72
2022-10-20T12:08:30.580Z,25.63
2022-10-20T12:11:12.382Z,25.35
2022-10-20T12:13:54.374Z,24.99
2022-10-20T12:16:55.461Z,24.46
2022-10-20T14:50:20.601Z,9.33
2022-10-20T14:56:27.979Z,9.17
2022-10-20T15:05:27.468Z,8.93
2022-10-20T15:08:13.350Z,8.87
2022-10-20T15:43:15.523Z,7.88
2022-10-20T16:11:29.923Z,6.29
2022-10-20T16:14:08.616Z,6.10
2022-10-20T16:26:10.803Z,5.76
2022-10-20T16:29:08.401Z,5.68
2022-10-20T16:35:04.887Z,5.48
2022-10-20T16:37:44.755Z,5.38
2022-10-20T16:40:25.097Z,5.30
2022-10-20T16:43:00.071Z,5.24
2022-10-20T16:45:32.879Z,5.13
2022-10-20T16:48:08.248Z,5.04
2022-10-20T16:50:49.336Z,4.94
2022-10-20T16:53:27.468Z,4.89
2022-10-20T16:56:03.543Z,4.86
2022-10-20T16:58:37.395Z,4.83
2022-10-20T17:01:16.068Z,4.77
2022-10-20T17:03:54.417Z,4.72
2022-10-20T17:06:28.219Z,4.69
2022-10-20T17:09:53.556Z,4.66
2022-10-20T17:12:28.652Z,4.59
2022-10-20T17:18:12.754Z,4.44
2022-10-20T17:20:55.596Z,4.36
2022-10-20T17:23:47.525Z,4.29
2022-10-20T17:26:36.137Z,4.22
2022-10-20T17:32:28.015Z,4.14
2022-10-20T17:35:02.141Z,4.14
2022-10-20T17:37:52.091Z,4.17
2022-10-20T17:40:27.638Z,4.21
2022-10-20T17:43:03.550Z,4.26
2022-10-20T17:45:44.878Z,4.28
2022-10-20T17:48:38.653Z,4.29
2022-10-20T17:51:28.977Z,4.31
2022-10-20T17:54:06.885Z,4.28
2022-10-20T17:57:05.032Z,4.28
2022-10-20T17:59:42.531Z,4.19
2022-10-20T18:02:24.614Z,4.07
2022-10-20T18:04:55.725Z,3.99
2022-10-20T18:07:25.386Z,3.94
2022-10-20T18:09:55.415Z,3.86
2022-10-20T18:12:30.023Z,3.80
2022-10-20T18:15:03.964Z,3.75
2022-10-20T18:17:35.654Z,3.70
2022-10-20T18:20:06.857Z,3.66
2022-10-20T18:22:37.899Z,3.62
2022-10-20T18:25:08.539Z,3.60
2022-10-20T18:27:38.804Z,3.58
2022-10-20T18:30:14.405Z,3.65
2022-10-20T18:32:47.834Z,3.71
2022-10-20T18:35:17.346Z,3.78
2022-10-20T18:37:51.563Z,3.79
2022-10-20T18:40:26.179Z,3.78
2022-10-20T18:43:00.040Z,3.76
2022-10-20T18:45:32.235Z,3.73
2022-10-20T18:48:02.489Z,3.73
2022-10-20T18:50:33.698Z,3.71
2022-10-20T18:53:04.484Z,3.65
2022-10-20T18:56:08.897Z,3.61
2022-10-20T18:58:40.199Z,3.63
2022-10-20T19:01:12.669Z,3.64
2022-10-20T19:03:45.319Z,3.61
2022-10-20T19:06:17.846Z,3.59
2022-10-20T19:08:52.727Z,3.58
2022-10-20T19:11:27.113Z,3.56
2022-10-20T19:13:58.018Z,3.59
2022-10-20T19:16:33.594Z,3.63
2022-10-20T19:19:08.678Z,3.68
2022-10-20T19:21:39.976Z,3.69
2022-10-20T19:24:16.314Z,3.66
2022-10-20T19:27:21.062Z,3.64
2022-10-20T19:29:46.918Z,3.59
2022-10-20T19:32:16.820Z,3.51
2022-10-20T19:34:46.846Z,3.48
2022-10-20T19:37:19.010Z,3.46
2022-10-20T19:39:48.843Z,3.44
2022-10-20T19:42:19.201Z,3.44
2022-10-20T19:44:52.754Z,3.43
2022-10-20T19:47:24.335Z,3.46
2022-10-20T19:49:55.195Z,3.51
2022-10-20T19:52:24.924Z,3.54
2022-10-20T19:54:55.567Z,3.53
2022-10-20T20:01:09.530Z,3.42
2022-10-20T20:03:40.606Z,3.39
2022-10-20T20:06:14.593Z,3.42
2022-10-20T20:08:46.435Z,3.55
2022-10-20T20:11:28.110Z,3.66
2022-10-20T20:14:11.327Z,3.71
2022-10-20T20:16:41.825Z,3.76
2022-10-20T20:19:12.590Z,3.79
2022-10-20T20:21:43.925Z,3.79
2022-10-20T20:24:15.826Z,3.81
2022-10-20T20:26:45.339Z,3.84
2022-10-20T20:29:16.891Z,3.85
2022-10-20T20:31:45.615Z,3.85
2022-10-20T20:34:14.676Z,3.83
2022-10-20T20:36:44.589Z,3.79
2022-10-20T20:39:14.328Z,3.74
2022-10-20T20:41:44.403Z,3.71
2022-10-20T20:44:15.654Z,3.63
2022-10-20T20:46:46.303Z,3.60
2022-10-20T20:49:15.244Z,3.61
2022-10-20T20:51:43.886Z,3.63
2022-10-20T20:54:13.473Z,3.68
2022-10-20T20:56:49.064Z,3.69
2022-10-20T20:59:21.060Z,3.71
2022-10-20T21:01:50.956Z,3.73
2022-10-20T21:04:22.194Z,3.76
2022-10-20T21:07:02.404Z,3.77
2022-10-20T21:09:33.252Z,3.76
2022-10-20T21:12:04.227Z,3.74
2022-10-20T21:14:33.721Z,3.72
2022-10-20T21:17:02.297Z,3.70
2022-10-20T21:19:30.785Z,3.68
2022-10-20T21:22:01.763Z,3.66
2022-10-20T21:24:30.340Z,3.65
2022-10-20T21:27:00.042Z,3.64
2022-10-20T21:29:28.571Z,3.62
2022-10-20T21:31:58.411Z,3.58
2022-10-20T21:34:27.615Z,3.51
2022-10-20T21:36:57.934Z,3.42
2022-10-20T21:39:26.759Z,3.33
2022-10-20T21:41:55.350Z,3.24
2022-10-20T21:44:24.092Z,3.19
2022-10-20T21:46:56.296Z,3.18
2022-10-20T21:49:28.578Z,3.17
2022-10-20T21:51:58.205Z,3.16
2022-10-20T21:54:28.253Z,3.18
2022-10-20T21:57:01.118Z,3.22
2022-10-20T21:59:31.657Z,3.26
2022-10-20T22:02:01.770Z,3.30
2022-10-20T22:04:31.282Z,3.33
2022-10-20T22:07:02.745Z,3.36
2022-10-20T22:09:33.043Z,3.40
2022-10-20T22:12:01.976Z,3.46
2022-10-20T22:14:31.431Z,3.50
2022-10-20T22:17:00.190Z,3.50
2022-10-20T22:19:31.081Z,3.51
2022-10-20T22:22:00.001Z,3.52
2022-10-20T22:24:31.598Z,3.52
2022-10-20T22:27:00.849Z,3.51
2022-10-20T22:29:29.365Z,3.50
2022-10-20T22:31:58.236Z,3.48
2022-10-20T22:34:26.881Z,3.47
2022-10-20T22:36:56.174Z,3.43
2022-10-20T22:39:24.901Z,3.41
2022-10-20T22:41:55.434Z,3.39
2022-10-20T22:44:25.369Z,3.37
2022-10-20T22:46:56.199Z,3.37
2022-10-20T22:49:25.137Z,3.36
2022-10-20T22:51:53.730Z,3.36
2022-10-20T22:54:24.415Z,3.34
2022-10-20T22:56:55.741Z,3.31
2022-10-20T22:59:24.326Z,3.28
2022-10-20T23:01:53.869Z,3.26
2022-10-20T23:04:22.571Z,3.24
2022-10-20T23:06:53.687Z,3.22
2022-10-20T23:09:24.451Z,3.20
2022-10-20T23:11:55.043Z,3.18
2022-10-20T23:14:24.575Z,3.17
2022-10-20T23:16:53.139Z,3.17
2022-10-20T23:19:22.064Z,3.19
2022-10-20T23:21:53.797Z,3.21
2022-10-20T23:24:22.798Z,3.18
2022-10-20T23:26:51.721Z,3.15
2022-10-20T23:29:21.920Z,3.12
2022-10-20T23:31:50.743Z,3.10
2022-10-20T23:34:20.896Z,3.09
2022-10-20T23:36:49.549Z,3.07
2022-10-20T23:39:20.042Z,3.06
2022-10-20T23:41:50.144Z,3.03
2022-10-20T23:44:19.696Z,3.02
2022-10-20T23:47:02.075Z,3.02
2022-10-20T23:49:44.428Z,3.00
2022-10-20T23:52:26.568Z,2.99
2022-10-20T23:54:57.446Z,2.97
